Time;durP1;ratioP1;P1;durP2;ratioP2;P2;SDS_P1;SDS_P2;PMS_P1;PMS_P2;Temp;Humidity;BMP_temperature;BMP_pressure;BME280_temperature;BME280_humidity;BME280_pressure;Samples;Min_cycle;Max_cycle;Signal;HPM_P1;HPM_P2
2022/04/14 00:00:05;;;;;;;13.68;10.63;;;10.50;99.90;;;;;;5027854;28;20497;-77
2022/04/14 00:02:31;;;;;;;13.07;10.05;;;10.50;99.90;;;;;;5028210;28;20038;-77
2022/04/14 00:04:56;;;;;;;13.63;10.60;;;10.50;99.90;;;;;;5029709;28;20053;-77
2022/04/14 00:07:22;;;;;;;13.98;9.55;;;10.50;99.90;;;;;;5028158;28;20042;-77
2022/04/14 00:09:48;;;;;;;13.73;9.50;;;10.50;99.90;;;;;;5031075;28;20041;-77
2022/04/14 00:12:13;;;;;;;11.07;9.30;;;10.50;99.90;;;;;;5031604;28;20045;-77
2022/04/14 00:14:39;;;;;;;11.88;9.65;;;10.50;99.90;;;;;;5032757;28;20048;-77
2022/04/14 00:17:05;;;;;;;14.13;10.20;;;10.40;99.90;;;;;;5031416;28;20029;-77
2022/04/14 00:19:31;;;;;;;12.68;9.38;;;10.40;99.90;;;;;;5031952;28;20053;-77
2022/04/14 00:21:56;;;;;;;14.68;9.50;;;10.40;99.90;;;;;;5031599;28;20506;-77
2022/04/14 00:24:22;;;;;;;14.60;9.65;;;10.40;99.90;;;;;;5031842;28;20498;-77
2022/04/14 00:26:48;;;;;;;11.02;8.95;;;10.30;99.90;;;;;;5033097;28;20047;-77
2022/04/14 00:29:13;;;;;;;12.80;10.00;;;10.30;99.90;;;;;;5031242;28;20049;-77
2022/04/14 00:31:39;;;;;;;11.35;9.50;;;10.30;99.90;;;;;;5031519;28;20069;-77
2022/04/14 00:34:04;;;;;;;13.13;9.80;;;10.30;99.90;;;;;;5030242;28;20076;-77
2022/04/14 00:36:33;;;;;;;12.57;9.60;;;10.30;99.90;;;;;;5030241;28;20033;-77
2022/04/14 00:38:58;;;;;;;12.35;9.48;;;10.30;99.90;;;;;;5024982;28;20514;-77
2022/04/14 00:41:24;;;;;;;14.40;9.57;;;10.30;99.90;;;;;;5031868;28;20228;-77
2022/04/14 00:43:54;;;;;;;13.65;9.35;;;10.30;99.90;;;;;;5029853;28;20029;-77
2022/04/14 00:46:20;;;;;;;12.63;10.00;;;10.30;99.90;;;;;;5032132;28;20049;-77
2022/04/14 00:48:46;;;;;;;12.20;9.00;;;10.30;99.90;;;;;;5031577;28;20038;-77
2022/04/14 00:51:12;;;;;;;16.08;10.13;;;10.20;99.90;;;;;;5032033;28;20137;-77
2022/04/14 00:53:39;;;;;;;10.65;9.30;;;10.20;99.90;;;;;;5030308;28;20502;-77
2022/04/14 00:56:06;;;;;;;13.55;9.82;;;10.20;99.90;;;;;;5032499;28;20128;-77
2022/04/14 00:58:32;;;;;;;15.63;10.18;;;10.20;99.90;;;;;;5031491;28;20582;-77
2022/04/14 01:00:58;;;;;;;12.25;10.18;;;10.20;99.90;;;;;;5031839;28;20436;-77
2022/04/14 01:03:23;;;;;;;12.20;10.95;;;10.20;99.90;;;;;;5030798;28;20080;-77
2022/04/14 01:05:49;;;;;;;12.40;9.75;;;10.20;99.90;;;;;;5031499;28;20079;-77
2022/04/14 01:08:17;;;;;;;14.63;10.63;;;10.10;99.90;;;;;;5032237;28;20099;-77
2022/04/14 01:10:47;;;;;;;16.10;10.80;;;10.10;99.90;;;;;;5030967;28;20033;-77
2022/04/14 01:13:14;;;;;;;15.65;10.68;;;10.10;99.90;;;;;;5028969;28;20128;-77
2022/04/14 01:15:40;;;;;;;13.82;10.40;;;10.10;99.90;;;;;;5032471;28;20056;-77
2022/04/14 01:18:06;;;;;;;13.40;10.40;;;10.10;99.90;;;;;;5028249;28;20033;-77
2022/04/14 01:20:31;;;;;;;12.38;10.60;;;10.00;99.90;;;;;;5031283;28;20046;-77
2022/04/14 01:23:02;;;;;;;13.60;10.68;;;10.00;99.90;;;;;;5031928;28;20089;-77
2022/04/14 01:25:28;;;;;;;14.48;11.32;;;10.00;99.90;;;;;;5012285;28;20382;-77
2022/04/14 01:27:54;;;;;;;13.45;10.98;;;10.00;99.90;;;;;;5014747;28;20041;-77
2022/04/14 01:30:20;;;;;;;13.13;10.82;;;10.00;99.90;;;;;;5015192;28;20442;-77
2022/04/14 01:32:46;;;;;;;16.23;10.70;;;9.90;99.90;;;;;;5030057;28;20045;-77
2022/04/14 01:35:12;;;;;;;13.13;10.70;;;9.90;99.90;;;;;;5029747;28;20037;-77
2022/04/14 01:37:37;;;;;;;13.27;10.68;;;9.90;99.90;;;;;;5031052;28;20056;-77
2022/04/14 01:40:03;;;;;;;14.43;10.68;;;9.90;99.90;;;;;;5030646;28;20052;-77
2022/04/14 01:42:29;;;;;;;12.02;10.18;;;9.90;99.90;;;;;;5030562;28;20532;-77
2022/04/14 01:44:55;;;;;;;13.90;11.20;;;9.80;99.90;;;;;;5031695;28;20132;-77
2022/04/14 01:47:20;;;;;;;15.02;10.85;;;9.80;99.90;;;;;;5013612;28;20132;-77
2022/04/14 01:49:46;;;;;;;14.65;11.27;;;9.80;99.90;;;;;;5028741;28;20045;-77
2022/04/14 01:52:11;;;;;;;12.82;11.27;;;9.70;99.90;;;;;;5030153;28;20041;-77
2022/04/14 01:54:37;;;;;;;16.25;12.27;;;9.70;99.90;;;;;;5030524;28;20056;-77
2022/04/14 01:57:03;;;;;;;15.90;11.60;;;9.60;99.90;;;;;;5029476;28;20042;-77
2022/04/14 01:59:29;;;;;;;13.95;11.20;;;9.60;99.90;;;;;;5030136;28;20061;-77
2022/04/14 02:01:54;;;;;;;11.38;10.20;;;9.60;99.90;;;;;;5046521;28;20064;-77
2022/04/14 02:04:20;;;;;;;13.35;11.02;;;9.50;99.90;;;;;;5028750;28;20045;-77
2022/04/14 02:06:45;;;;;;;14.70;12.45;;;9.60;99.90;;;;;;5028535;28;20037;-77
2022/04/14 02:09:12;;;;;;;13.90;11.68;;;9.50;99.90;;;;;;5030097;28;20107;-77
2022/04/14 02:11:38;;;;;;;13.82;11.00;;;9.50;99.90;;;;;;5030762;28;20120;-77
2022/04/14 02:14:03;;;;;;;14.85;12.07;;;9.50;99.90;;;;;;5030939;28;20116;-77
2022/04/14 02:16:29;;;;;;;14.48;11.88;;;9.50;99.90;;;;;;5030730;28;20041;-77
2022/04/14 02:18:54;;;;;;;15.35;11.43;;;9.50;99.90;;;;;;5030848;28;20430;-77
2022/04/14 02:21:20;;;;;;;18.42;13.02;;;9.50;99.90;;;;;;5030794;28;20450;-77
2022/04/14 02:23:46;;;;;;;14.85;10.88;;;9.50;99.90;;;;;;5030730;28;20037;-77
2022/04/14 02:26:11;;;;;;;17.67;12.25;;;9.40;99.90;;;;;;5028815;28;20729;-77
2022/04/14 02:28:37;;;;;;;14.68;12.35;;;9.40;99.90;;;;;;5029864;28;20527;-77
2022/04/14 02:31:02;;;;;;;16.75;12.35;;;9.40;99.90;;;;;;5019827;28;20038;-77
2022/04/14 02:33:28;;;;;;;13.25;11.18;;;9.40;99.90;;;;;;5025788;28;20140;-77
2022/04/14 02:35:53;;;;;;;18.02;12.45;;;9.40;99.90;;;;;;5030340;28;20047;-77
2022/04/14 02:38:19;;;;;;;16.50;11.80;;;9.30;99.90;;;;;;5030480;28;20036;-77
2022/04/14 02:40:44;;;;;;;17.80;12.93;;;9.30;99.90;;;;;;5029840;28;20103;-77
2022/04/14 02:43:10;;;;;;;16.10;12.75;;;9.30;99.90;;;;;;5030418;28;20124;-77
2022/04/14 02:45:35;;;;;;;17.90;12.95;;;9.30;99.90;;;;;;5030536;28;20040;-77
2022/04/14 02:48:01;;;;;;;14.57;12.20;;;9.30;99.90;;;;;;5030420;28;20056;-77
2022/04/14 02:50:27;;;;;;;16.75;13.73;;;9.30;99.90;;;;;;5030587;28;20414;-77
2022/04/14 02:52:54;;;;;;;15.27;12.73;;;9.30;99.90;;;;;;5030261;28;20095;-77
2022/04/14 02:55:20;;;;;;;17.02;13.00;;;9.30;99.90;;;;;;5029144;28;20125;-77
2022/04/14 02:57:46;;;;;;;17.60;13.75;;;9.20;99.90;;;;;;5029765;28;20045;-77
2022/04/14 03:00:12;;;;;;;15.73;12.82;;;9.20;99.90;;;;;;5008848;28;20038;-77
2022/04/14 03:02:39;;;;;;;16.23;13.90;;;9.20;99.90;;;;;;5029044;28;20084;-77
2022/04/14 03:05:05;;;;;;;17.45;13.82;;;9.20;99.90;;;;;;5030230;28;20092;-77
2022/04/14 03:07:31;;;;;;;16.25;11.93;;;9.10;99.90;;;;;;5029999;28;20067;-77
2022/04/14 03:09:57;;;;;;;15.98;13.20;;;9.10;99.90;;;;;;5029167;28;20042;-77
2022/04/14 03:12:22;;;;;;;16.88;14.02;;;9.10;99.90;;;;;;5029736;28;20533;-77
2022/04/14 03:14:48;;;;;;;19.15;14.15;;;9.00;99.90;;;;;;5027948;28;20751;-77
2022/04/14 03:17:14;;;;;;;18.83;14.15;;;9.00;99.90;;;;;;5029875;28;20033;-77
2022/04/14 03:19:40;;;;;;;17.85;14.23;;;9.00;99.90;;;;;;5028954;28;20175;-77
2022/04/14 03:22:05;;;;;;;18.17;14.35;;;9.00;99.90;;;;;;5029189;28;20052;-77
2022/04/14 03:24:31;;;;;;;17.45;14.27;;;8.90;99.90;;;;;;5022000;28;20128;-77
2022/04/14 03:26:57;;;;;;;17.35;14.32;;;8.90;99.90;;;;;;5027870;28;20048;-77
2022/04/14 03:29:22;;;;;;;17.98;14.80;;;8.90;99.90;;;;;;5029189;28;20506;-77
2022/04/14 03:31:48;;;;;;;18.05;15.75;;;8.80;99.90;;;;;;5028546;28;20037;-77
2022/04/14 03:34:13;;;;;;;16.55;14.57;;;8.80;99.90;;;;;;5011911;28;20065;-77
2022/04/14 03:36:39;;;;;;;16.80;15.05;;;8.70;99.90;;;;;;5028714;28;20052;-77
2022/04/14 03:39:04;;;;;;;19.25;16.13;;;8.70;99.90;;;;;;5013087;28;20057;-77
2022/04/14 03:41:30;;;;;;;18.20;15.05;;;8.70;99.90;;;;;;5028766;28;20631;-77
2022/04/14 03:43:57;;;;;;;19.20;16.15;;;8.70;99.90;;;;;;5009827;28;20054;-77
2022/04/14 03:46:22;;;;;;;20.65;16.58;;;8.60;99.90;;;;;;5016832;28;20038;-77
2022/04/14 03:48:48;;;;;;;21.30;17.20;;;8.60;99.90;;;;;;5031504;28;20481;-77
2022/04/14 03:51:17;;;;;;;21.95;18.02;;;8.60;99.90;;;;;;5034278;28;20037;-77
2022/04/14 03:53:43;;;;;;;18.90;16.88;;;8.50;99.90;;;;;;5032635;28;20091;-77
2022/04/14 03:56:09;;;;;;;18.77;16.65;;;8.50;99.90;;;;;;5003899;28;20060;-77
2022/04/14 03:58:35;;;;;;;18.75;16.63;;;8.50;99.90;;;;;;5032377;28;20129;-77
2022/04/14 04:01:01;;;;;;;20.17;16.80;;;8.40;99.90;;;;;;5026392;28;20120;-77
2022/04/14 04:03:26;;;;;;;20.50;15.73;;;8.40;99.90;;;;;;5032155;28;20092;-77
2022/04/14 04:05:52;;;;;;;21.70;17.33;;;8.40;99.90;;;;;;5014304;28;20041;-77
2022/04/14 04:08:18;;;;;;;20.08;16.92;;;8.30;99.90;;;;;;5032733;28;20040;-77
2022/04/14 04:10:44;;;;;;;22.70;17.92;;;8.30;99.90;;;;;;5033690;28;20045;-77
2022/04/14 04:13:11;;;;;;;20.65;17.88;;;8.30;99.90;;;;;;5031866;28;20049;-77
2022/04/14 04:15:36;;;;;;;21.30;17.20;;;8.30;99.90;;;;;;5032841;28;20071;-77
2022/04/14 04:18:04;;;;;;;23.42;17.92;;;8.20;99.90;;;;;;5032569;28;20029;-77
2022/04/14 04:20:31;;;;;;;20.63;18.08;;;8.20;99.90;;;;;;5031336;28;20038;-77
2022/04/14 04:22:56;;;;;;;19.08;16.73;;;8.20;99.90;;;;;;5031454;28;20162;-77
2022/04/14 04:25:22;;;;;;;19.85;16.77;;;8.10;99.90;;;;;;5017215;28;20467;-77
2022/04/14 04:27:47;;;;;;;22.58;18.35;;;8.10;99.90;;;;;;5031007;28;20095;-77
2022/04/14 04:30:13;;;;;;;20.30;18.13;;;8.10;99.90;;;;;;5031942;28;20582;-77
2022/04/14 04:32:39;;;;;;;21.30;17.63;;;8.00;99.90;;;;;;5032411;28;20044;-77
2022/04/14 04:35:06;;;;;;;25.13;19.30;;;8.00;99.90;;;;;;5031572;28;20565;-77
2022/04/14 04:37:32;;;;;;;23.48;19.20;;;8.00;99.90;;;;;;5030133;28;20053;-77
2022/04/14 04:39:58;;;;;;;22.20;18.63;;;8.00;99.90;;;;;;5032525;28;20041;-77
2022/04/14 04:42:24;;;;;;;26.52;20.73;;;8.00;99.90;;;;;;5032320;28;20388;-77
2022/04/14 04:44:50;;;;;;;24.83;20.02;;;7.90;99.90;;;;;;5030723;28;20045;-78
2022/04/14 04:47:16;;;;;;;22.48;18.63;;;7.90;99.90;;;;;;5031555;28;20049;-77
2022/04/14 04:49:42;;;;;;;23.20;18.77;;;7.80;99.90;;;;;;5031962;28;20045;-77
2022/04/14 04:52:08;;;;;;;27.75;20.10;;;7.80;99.90;;;;;;5030796;28;20518;-77
2022/04/14 04:54:34;;;;;;;43.05;19.48;;;7.70;99.90;;;;;;5047825;28;20044;-77
2022/04/14 04:56:59;;;;;;;25.55;18.58;;;7.70;99.90;;;;;;5030902;28;20041;-77
2022/04/14 04:59:25;;;;;;;21.15;18.48;;;7.70;99.90;;;;;;5030520;28;20045;-77
2022/04/14 05:01:51;;;;;;;21.30;17.50;;;7.70;99.90;;;;;;5014272;28;20037;-77
2022/04/14 05:04:17;;;;;;;28.45;20.13;;;7.70;99.90;;;;;;5031635;28;20120;-77
2022/04/14 05:06:43;;;;;;;22.40;19.13;;;7.70;99.90;;;;;;5031664;28;20530;-77
2022/04/14 05:09:09;;;;;;;30.08;18.48;;;7.70;99.90;;;;;;5033822;28;20444;-78
2022/04/14 05:11:34;;;;;;;25.10;18.70;;;7.70;99.90;;;;;;5013385;28;20050;-77
2022/04/14 05:14:01;;;;;;;19.77;17.55;;;7.70;99.90;;;;;;5031646;28;20055;-77
2022/04/14 05:16:27;;;;;;;21.17;18.00;;;7.70;99.90;;;;;;5030948;28;20087;-77
2022/04/14 05:18:53;;;;;;;20.38;18.08;;;7.70;99.90;;;;;;5031679;28;20038;-77
2022/04/14 05:21:19;;;;;;;21.63;19.35;;;7.70;99.90;;;;;;5031528;28;20446;-77
2022/04/14 05:23:44;;;;;;;22.55;20.08;;;7.70;99.90;;;;;;5030249;28;20253;-77
2022/04/14 05:26:10;;;;;;;25.02;19.13;;;7.70;99.90;;;;;;5031260;28;20042;-76
2022/04/14 05:28:36;;;;;;;21.08;17.75;;;7.70;99.90;;;;;;5029642;28;20039;-77
2022/04/14 05:31:02;;;;;;;20.60;18.40;;;7.80;99.90;;;;;;5029904;28;20123;-77
2022/04/14 05:33:28;;;;;;;21.10;18.83;;;7.80;99.90;;;;;;5015178;28;20386;-77
2022/04/14 05:35:53;;;;;;;21.60;18.63;;;7.90;99.90;;;;;;5032118;28;20046;-77
2022/04/14 05:38:20;;;;;;;31.80;20.10;;;8.00;99.90;;;;;;5031745;28;20052;-77
2022/04/14 05:40:46;;;;;;;26.77;21.83;;;8.00;99.90;;;;;;5032075;28;20626;-77
2022/04/14 05:43:18;;;;;;;21.02;18.83;;;8.20;99.90;;;;;;5014467;28;20049;-77
2022/04/14 05:45:49;;;;;;;;;;;8.80;99.90;;;;;;5032154;28;20025;-77
2022/04/14 05:48:16;;;;;;;19.27;15.15;;;9.70;99.90;;;;;;5014912;28;20023;-77
2022/04/14 05:50:42;;;;;;;19.67;16.55;;;10.60;99.90;;;;;;5027554;28;20040;-78
2022/04/14 05:53:08;;;;;;;21.33;18.15;;;11.50;99.90;;;;;;5024366;28;20037;-78
2022/04/14 05:55:34;;;;;;;21.60;19.40;;;12.30;99.90;;;;;;5019832;28;20125;-78
2022/04/14 05:57:59;;;;;;;28.40;23.48;;;12.90;99.90;;;;;;5031378;28;20037;-77
2022/04/14 06:00:25;;;;;;;25.40;21.75;;;13.70;99.90;;;;;;5030808;28;20415;-78
2022/04/14 06:02:50;;;;;;;24.95;20.38;;;14.40;99.90;;;;;;5031039;28;20547;-78
2022/04/14 06:05:16;;;;;;;25.80;22.67;;;15.10;99.90;;;;;;5031400;28;20041;-77
2022/04/14 06:07:41;;;;;;;26.70;23.83;;;15.70;99.90;;;;;;5008838;28;20038;-77
2022/04/14 06:10:07;;;;;;;26.88;22.88;;;16.30;99.90;;;;;;5030729;28;20041;-78
2022/04/14 06:12:33;;;;;;;26.50;23.73;;;16.60;99.90;;;;;;5014516;28;20068;-78
2022/04/14 06:14:58;;;;;;;30.40;23.40;;;17.10;99.90;;;;;;5030998;28;20041;-78
2022/04/14 06:17:24;;;;;;;26.05;22.98;;;17.60;99.90;;;;;;5030972;28;20076;-78
2022/04/14 06:19:50;;;;;;;23.95;21.42;;;18.10;99.90;;;;;;5031909;28;20046;-78
2022/04/14 06:22:15;;;;;;;25.77;22.80;;;18.50;99.90;;;;;;5029496;28;20041;-78
2022/04/14 06:24:41;;;;;;;28.15;24.15;;;18.80;99.90;;;;;;5013014;28;20087;-78
2022/04/14 06:27:06;;;;;;;26.02;21.55;;;19.10;99.90;;;;;;5030412;28;20048;-78
2022/04/14 06:29:32;;;;;;;25.58;22.38;;;19.60;99.90;;;;;;5030479;28;20033;-77
2022/04/14 06:31:57;;;;;;;24.50;21.95;;;19.90;98.60;;;;;;5030343;28;20041;-77
2022/04/14 06:34:24;;;;;;;27.00;23.70;;;;;;;;;;5030032;28;20127;-77
2022/04/14 06:36:49;;;;;;;24.52;21.00;;;20.50;97.80;;;;;;5030308;28;20041;-77
2022/04/14 06:39:15;;;;;;;25.40;22.67;;;20.60;97.00;;;;;;5012091;28;20099;-78
2022/04/14 06:41:41;;;;;;;26.30;23.40;;;20.80;97.70;;;;;;5029620;28;20037;-78
2022/04/14 06:44:06;;;;;;;24.50;20.60;;;21.10;97.10;;;;;;5030363;28;20037;-78
2022/04/14 06:46:32;;;;;;;24.75;22.25;;;21.10;94.20;;;;;;4998694;28;20034;-78
2022/04/14 06:48:57;;;;;;;22.90;20.48;;;20.40;95.00;;;;;;5029653;28;20043;-78
2022/04/14 06:51:23;;;;;;;24.58;21.98;;;20.40;95.50;;;;;;5018602;28;20106;-78
2022/04/14 06:53:49;;;;;;;24.92;19.30;;;20.40;97.10;;;;;;5028021;28;20072;-77
2022/04/14 06:56:14;;;;;;;34.47;20.08;;;20.70;94.40;;;;;;5028832;28;20033;-78
2022/04/14 06:58:42;;;;;;;21.60;19.08;;;21.10;93.90;;;;;;5024629;28;20047;-77
2022/04/14 07:01:08;;;;;;;20.27;18.10;;;21.40;93.50;;;;;;5021700;28;20398;-77
2022/04/14 07:03:34;;;;;;;22.25;19.75;;;21.90;91.80;;;;;;5025406;28;20033;-77
2022/04/14 07:06:00;;;;;;;23.85;20.25;;;21.90;88.20;;;;;;5028882;28;20045;-78
2022/04/14 07:08:29;;;;;;;19.65;17.65;;;21.60;91.20;;;;;;5029581;28;20371;-78
2022/04/14 07:10:57;;;;;;;21.08;18.77;;;21.80;92.30;;;;;;5042313;28;20138;-77
2022/04/14 07:13:23;;;;;;;20.50;18.40;;;22.40;90.60;;;;;;5006338;28;20234;-75
2022/04/14 07:15:49;;;;;;;21.85;17.70;;;;;;;;;;5025383;28;20964;-74
2022/04/14 07:18:14;;;;;;;20.33;17.23;;;22.90;88.60;;;;;;5010482;28;20037;-77
2022/04/14 07:20:40;;;;;;;18.73;16.83;;;22.50;90.40;;;;;;5032387;28;20380;-77
2022/04/14 07:23:08;;;;;;;19.15;17.08;;;22.30;90.10;;;;;;5033440;28;20071;-77
2022/04/14 07:25:34;;;;;;;19.23;16.30;;;22.30;90.80;;;;;;5026851;28;20076;-77
2022/04/14 07:28:01;;;;;;;17.92;16.10;;;22.30;86.40;;;;;;5033610;28;20049;-77
2022/04/14 07:30:27;;;;;;;17.30;15.57;;;22.70;90.00;;;;;;5033445;28;20542;-76
2022/04/14 07:32:54;;;;;;;15.95;14.35;;;;;;;;;;5017027;28;20387;-74
2022/04/14 07:35:22;;;;;;;17.23;15.52;;;23.20;79.80;;;;;;5034870;28;20451;-77
2022/04/14 07:37:51;;;;;;;16.58;14.88;;;23.20;74.60;;;;;;5031557;28;20041;-79
2022/04/14 07:40:18;;;;;;;15.73;14.07;;;23.10;76.90;;;;;;5031922;28;20376;-78
2022/04/14 07:42:45;;;;;;;15.90;14.40;;;23.20;73.10;;;;;;5007957;28;20029;-79
2022/04/14 07:45:12;;;;;;;17.05;15.35;;;23.00;73.70;;;;;;5043615;28;20032;-79
2022/04/14 07:47:43;;;;;;;18.05;15.80;;;22.60;75.30;;;;;;5033765;28;20033;-79
2022/04/14 07:50:10;;;;;;;19.70;15.38;;;22.00;78.50;;;;;;5023882;28;20048;-80
2022/04/14 07:52:56;;;;;;;15.73;13.98;;;21.30;85.10;;;;;;5019874;28;20543;-79
2022/04/14 07:55:27;;;;;;;21.13;14.43;;;20.40;90.50;;;;;;5044382;28;20037;-79
2022/04/14 07:57:56;;;;;;;15.82;14.23;;;19.80;94.20;;;;;;5015314;28;20033;-79
2022/04/14 08:00:23;;;;;;;15.38;13.88;;;19.20;95.30;;;;;;5014112;28;20091;-79
2022/04/14 08:02:54;;;;;;;16.42;14.82;;;18.90;96.10;;;;;;5010539;28;20038;-79
2022/04/14 08:05:22;;;;;;;17.67;15.80;;;18.50;97.70;;;;;;5015576;28;20121;-80
2022/04/14 08:07:48;;;;;;;20.10;15.45;;;18.20;99.20;;;;;;5027912;28;20049;-79
2022/04/14 08:10:13;;;;;;;16.95;14.23;;;17.90;99.30;;;;;;5015058;28;20037;-79
2022/04/14 08:12:39;;;;;;;17.77;16.05;;;17.70;98.90;;;;;;5011731;28;20044;-79
2022/04/14 08:15:07;;;;;;;16.35;14.65;;;17.40;99.90;;;;;;5017404;28;20049;-79
2022/04/14 08:17:33;;;;;;;17.85;16.02;;;17.40;99.90;;;;;;5024541;28;20045;-79
2022/04/14 08:19:59;;;;;;;17.90;16.10;;;17.20;99.90;;;;;;5032820;28;20411;-79
2022/04/14 08:22:24;;;;;;;17.15;15.38;;;17.10;99.90;;;;;;5022495;28;20068;-79
2022/04/14 08:24:50;;;;;;;17.75;14.90;;;17.10;99.90;;;;;;5027300;28;20057;-79
2022/04/14 08:27:17;;;;;;;18.70;16.70;;;17.00;99.90;;;;;;5024613;28;20086;-79
2022/04/14 08:29:43;;;;;;;17.98;16.08;;;16.80;99.90;;;;;;5015995;28;20046;-79
2022/04/14 08:32:09;;;;;;;17.33;15.52;;;16.80;99.90;;;;;;5019314;28;20038;-79
2022/04/14 08:34:36;;;;;;;19.27;17.23;;;16.70;99.90;;;;;;5027656;28;20065;-80
2022/04/14 08:37:02;;;;;;;21.75;16.90;;;16.70;99.90;;;;;;5049025;28;20048;-79
2022/04/14 08:39:29;;;;;;;20.27;17.05;;;16.80;99.90;;;;;;5024465;28;20034;-79
2022/04/14 08:42:07;;;;;;;19.40;17.27;;;16.70;99.90;;;;;;5025996;28;20095;-79
2022/04/14 08:44:40;;;;;;;18.40;16.52;;;16.70;99.90;;;;;;5017137;28;20454;-79
2022/04/14 08:47:08;;;;;;;19.42;15.98;;;16.70;99.90;;;;;;5033022;28;20045;-79
2022/04/14 08:49:34;;;;;;;18.35;16.35;;;16.80;99.90;;;;;;5033560;28;20099;-79
2022/04/14 08:52:01;;;;;;;17.95;16.05;;;16.80;99.90;;;;;;5023716;28;20046;-80
2022/04/14 08:54:28;;;;;;;17.15;15.35;;;16.80;99.90;;;;;;5006409;28;20045;-79
2022/04/14 08:56:58;;;;;;;19.15;15.68;;;16.80;99.90;;;;;;5018218;28;20369;-81
2022/04/14 08:59:24;;;;;;;19.00;15.98;;;16.90;99.90;;;;;;5033511;28;20049;-80
2022/04/14 09:01:51;;;;;;;18.13;16.33;;;16.90;99.90;;;;;;5031993;28;20041;-79
2022/04/14 09:04:17;;;;;;;17.77;15.90;;;16.90;99.90;;;;;;5028179;28;20085;-80
2022/04/14 09:06:43;;;;;;;19.08;17.17;;;17.00;99.90;;;;;;5013272;28;20041;-79
2022/04/14 09:09:09;;;;;;;18.33;16.15;;;17.00;99.90;;;;;;5032035;28;20053;-79
2022/04/14 09:11:34;;;;;;;19.77;17.88;;;17.10;99.90;;;;;;5021523;28;20490;-79
2022/04/14 09:14:01;;;;;;;19.88;17.77;;;17.20;99.90;;;;;;5026118;28;20081;-79
2022/04/14 09:16:29;;;;;;;20.75;17.42;;;17.20;99.90;;;;;;5018325;28;20037;-80
2022/04/14 09:18:55;;;;;;;19.13;17.13;;;17.20;99.90;;;;;;5028938;28;20049;-79
2022/04/14 09:21:21;;;;;;;20.88;18.65;;;17.20;99.90;;;;;;5021605;28;20056;-79
2022/04/14 09:23:51;;;;;;;20.30;18.25;;;17.10;99.90;;;;;;5028545;28;20054;-79
2022/04/14 09:26:23;;;;;;;20.00;18.00;;;17.20;99.90;;;;;;5015386;28;20041;-79
2022/04/14 09:29:07;;;;;;;21.00;18.65;;;17.30;99.90;;;;;;5032034;28;20067;-79
2022/04/14 09:31:47;;;;;;;19.35;16.85;;;17.30;99.90;;;;;;5014768;28;20037;-80
2022/04/14 09:34:15;;;;;;;20.42;18.33;;;17.40;99.90;;;;;;5024827;28;20045;-79
2022/04/14 09:36:41;;;;;;;20.63;17.75;;;17.30;99.90;;;;;;5014442;28;20040;-80
2022/04/14 09:39:06;;;;;;;16.90;15.23;;;17.50;99.90;;;;;;5026796;28;20365;-79
2022/04/14 09:41:39;;;;;;;15.05;13.50;;;17.60;99.90;;;;;;5017324;28;20512;-80
2022/04/14 09:44:08;;;;;;;14.57;13.23;;;17.70;99.50;;;;;;5030181;28;20057;-79
2022/04/14 09:46:34;;;;;;;14.27;12.93;;;17.80;99.40;;;;;;5008076;28;20041;-79
2022/04/14 09:49:07;;;;;;;13.38;12.07;;;18.00;98.60;;;;;;5026145;28;20045;-81
2022/04/14 09:51:38;;;;;;;16.08;13.85;;;18.00;98.80;;;;;;5029198;28;20034;-79
2022/04/14 09:54:17;;;;;;;13.60;12.20;;;17.80;99.70;;;;;;5025241;28;20068;-80
2022/04/14 09:56:44;;;;;;;14.73;12.73;;;18.00;99.40;;;;;;5022666;28;20526;-79
2022/04/14 09:59:12;;;;;;;12.90;11.60;;;18.10;98.70;;;;;;5025394;28;20041;-79
2022/04/14 10:01:38;;;;;;;13.07;11.75;;;18.10;98.70;;;;;;5013719;28;20048;-79
2022/04/14 10:04:07;;;;;;;11.10;9.88;;;18.20;98.60;;;;;;5022723;28;20036;-79
2022/04/14 10:06:33;;;;;;;12.30;11.20;;;18.50;97.90;;;;;;5023227;28;20038;-79
2022/04/14 10:08:59;;;;;;;12.10;10.90;;;18.70;97.60;;;;;;5015974;28;20386;-80
2022/04/14 10:11:30;;;;;;;11.13;9.85;;;18.90;97.30;;;;;;5015678;28;20125;-80
2022/04/14 10:14:13;;;;;;;14.70;10.52;;;19.20;95.50;;;;;;5023050;28;20117;-79
2022/04/14 10:16:42;;;;;;;12.60;10.93;;;19.30;95.40;;;;;;5026443;28;20037;-79
2022/04/14 10:19:09;;;;;;;10.75;9.27;;;19.40;95.20;;;;;;5031667;28;20042;-79
2022/04/14 10:21:37;;;;;;;11.38;10.30;;;19.20;95.40;;;;;;5020590;28;20427;-79
2022/04/14 10:24:03;;;;;;;10.02;9.02;;;19.10;96.20;;;;;;5030733;28;20419;-79
2022/04/14 10:26:30;;;;;;;11.95;8.93;;;19.00;95.60;;;;;;5031175;28;20116;-80
2022/04/14 10:28:56;;;;;;;9.23;7.28;;;18.90;97.00;;;;;;5015768;28;20149;-79
2022/04/14 10:31:21;;;;;;;9.75;7.53;;;18.90;96.10;;;;;;5021619;28;20070;-79
2022/04/14 10:33:48;;;;;;;7.47;6.78;;;18.80;96.50;;;;;;5020243;28;20038;-79
2022/04/14 10:36:13;;;;;;;7.35;6.57;;;18.90;96.10;;;;;;5022308;28;20390;-79
2022/04/14 10:38:41;;;;;;;8.48;6.45;;;19.10;96.20;;;;;;5010933;28;20038;-80
2022/04/14 10:41:25;;;;;;;6.97;6.28;;;19.10;96.00;;;;;;5019121;28;20038;-79
2022/04/14 10:43:51;;;;;;;7.68;6.05;;;19.10;95.40;;;;;;5008049;28;20033;-80
2022/04/14 10:46:17;;;;;;;6.32;4.45;;;19.00;95.80;;;;;;5028226;28;20041;-79
2022/04/14 10:48:44;;;;;;;6.60;3.97;;;19.10;94.60;;;;;;5028897;28;20400;-79
2022/04/14 10:51:24;;;;;;;4.72;3.40;;;19.10;94.50;;;;;;5021374;28;20089;-79
2022/04/14 10:54:08;;;;;;;6.53;4.60;;;19.10;94.80;;;;;;5022263;28;20045;-80
2022/04/14 10:56:34;;;;;;;6.55;4.20;;;19.20;94.30;;;;;;5039530;28;20132;-79
2022/04/14 10:59:14;;;;;;;5.63;3.65;;;19.10;94.80;;;;;;5029556;28;20128;-79
2022/04/14 11:01:46;;;;;;;8.38;4.45;;;19.30;93.90;;;;;;5025771;28;20038;-81
2022/04/14 11:04:33;;;;;;;4.55;3.35;;;19.10;94.80;;;;;;5030436;28;20033;-79
2022/04/14 11:07:01;;;;;;;5.70;3.85;;;19.00;93.10;;;;;;5007719;28;20388;-79
2022/04/14 11:09:39;;;;;;;5.05;4.45;;;18.90;94.30;;;;;;5021722;28;20137;-79
2022/04/14 11:12:06;;;;;;;5.07;4.25;;;18.60;94.40;;;;;;5011524;28;20368;-79
2022/04/14 11:14:36;;;;;;;6.47;4.47;;;18.50;95.70;;;;;;5024671;28;20612;-79
2022/04/14 11:17:03;;;;;;;4.97;3.75;;;18.40;96.10;;;;;;5048128;28;20034;-79
2022/04/14 11:19:30;;;;;;;5.35;4.10;;;18.50;96.10;;;;;;5028404;28;20507;-79
2022/04/14 11:21:59;;;;;;;3.88;3.22;;;18.40;96.70;;;;;;5027830;28;20049;-78
2022/04/14 11:24:36;;;;;;;4.68;3.28;;;18.50;96.20;;;;;;5028023;28;20482;-79
2022/04/14 11:27:16;;;;;;;5.20;3.05;;;18.40;95.80;;;;;;5020670;28;20081;-79
2022/04/14 11:29:47;;;;;;;5.45;3.00;;;18.30;94.80;;;;;;5013009;28;20046;-79
2022/04/14 11:32:15;;;;;;;5.03;2.70;;;18.50;96.20;;;;;;5025991;28;20163;-79
2022/04/14 11:34:41;;;;;;;4.13;2.30;;;18.50;94.00;;;;;;5030169;28;20030;-79
2022/04/14 11:37:49;;;;;;;4.20;2.67;;;18.60;95.10;;;;;;5061347;22;20051;-80
2022/04/14 11:40:17;;;;;;;4.40;2.38;;;18.60;95.00;;;;;;5050454;28;20569;-81
2022/04/14 11:42:51;;;;;;;4.18;2.58;;;18.80;92.90;;;;;;5048582;28;20470;-81
2022/04/14 11:45:24;;;;;;;3.83;2.50;;;19.00;94.60;;;;;;5044981;28;20056;-80
2022/04/14 11:47:54;;;;;;;4.63;2.50;;;19.20;95.30;;;;;;5029959;28;20138;-81
2022/04/14 11:50:25;;;;;;;2.65;1.70;;;19.40;94.30;;;;;;5046970;28;20141;-81
2022/04/14 11:53:00;;;;;;;3.15;1.70;;;19.60;92.30;;;;;;5051042;28;20430;-81
2022/04/14 11:55:42;;;;;;;4.60;1.92;;;19.30;91.50;;;;;;5049532;28;20060;-81
2022/04/14 11:58:13;;;;;;;5.95;2.40;;;19.30;92.70;;;;;;5047304;28;20033;-82
2022/04/14 12:00:46;;;;;;;4.80;1.95;;;19.40;92.90;;;;;;5045944;28;20049;-81
2022/04/14 12:03:13;;;;;;;2.42;1.58;;;19.20;93.60;;;;;;5047768;28;20037;-79
2022/04/14 12:05:40;;;;;;;3.55;1.80;;;19.20;91.50;;;;;;5043649;28;20041;-80
2022/04/14 12:08:10;;;;;;;4.00;2.22;;;19.30;93.20;;;;;;5050508;28;20502;-80
2022/04/14 12:10:36;;;;;;;3.95;1.75;;;19.40;91.30;;;;;;5046508;28;20056;-80
2022/04/14 12:13:10;;;;;;;4.57;1.90;;;19.40;93.00;;;;;;5051780;28;20041;-80
2022/04/14 12:15:37;;;;;;;3.90;2.38;;;19.50;93.30;;;;;;5050767;28;20513;-79
2022/04/14 12:18:10;;;;;;;4.38;2.35;;;19.60;92.50;;;;;;5054466;28;20040;-79
2022/04/14 12:20:39;;;;;;;8.55;1.98;;;19.70;91.50;;;;;;5049607;28;20052;-79
2022/04/14 12:23:07;;;;;;;2.35;1.60;;;19.80;92.60;;;;;;5037633;28;20037;-80
2022/04/14 12:25:34;;;;;;;2.72;1.80;;;19.90;91.40;;;;;;5047393;28;20045;-80
2022/04/14 12:28:01;;;;;;;4.47;1.90;;;20.00;87.50;;;;;;5043997;28;20443;-80
2022/04/14 12:30:29;;;;;;;3.35;1.80;;;20.10;91.60;;;;;;5046084;28;20120;-80
2022/04/14 12:33:06;;;;;;;2.28;1.60;;;20.10;91.00;;;;;;5034613;28;20045;-79
2022/04/14 12:35:40;;;;;;;7.57;2.00;;;19.80;85.10;;;;;;5050126;28;20067;-80